sensor_id;sensor_type;location;lat;lon;timestamp;temperature;humidity
56162;DHT22;42045;52.986;6.014;2022-08-01T00:02:05;18.00;99.90
56162;DHT22;42045;52.986;6.014;2022-08-01T00:04:30;18.10;99.90
56162;DHT22;42045;52.986;6.014;2022-08-01T00:06:56;18.00;99.90
56162;DHT22;42045;52.986;6.014;2022-08-01T00:09:22;18.10;99.90
56162;DHT22;42045;52.986;6.014;2022-08-01T00:11:47;18.00;99.90
56162;DHT22;42045;52.986;6.014;2022-08-01T00:14:13;18.00;99.90
56162;DHT22;42045;52.986;6.014;2022-08-01T00:16:39;18.10;99.90
56162;DHT22;42045;52.986;6.014;2022-08-01T00:19:04;18.10;99.90
56162;DHT22;42045;52.986;6.014;2022-08-01T00:21:30;18.10;99.90
56162;DHT22;42045;52.986;6.014;2022-08-01T00:23:56;18.10;99.90
56162;DHT22;42045;52.986;6.014;2022-08-01T00:26:21;18.10;99.90
56162;DHT22;42045;52.986;6.014;2022-08-01T00:28:47;18.10;99.90
56162;DHT22;42045;52.986;6.014;2022-08-01T00:31:13;18.00;99.90
56162;DHT22;42045;52.986;6.014;2022-08-01T00:33:38;18.10;99.90
56162;DHT22;42045;52.986;6.014;2022-08-01T00:36:04;18.10;99.90
56162;DHT22;42045;52.986;6.014;2022-08-01T00:38:29;18.10;99.90
56162;DHT22;42045;52.986;6.014;2022-08-01T00:40:55;18.00;99.90
56162;DHT22;42045;52.986;6.014;2022-08-01T00:43:21;18.10;99.90
56162;DHT22;42045;52.986;6.014;2022-08-01T00:45:47;18.10;99.90
56162;DHT22;42045;52.986;6.014;2022-08-01T00:48:12;18.10;99.90
56162;DHT22;42045;52.986;6.014;2022-08-01T00:50:38;18.00;99.90
56162;DHT22;42045;52.986;6.014;2022-08-01T00:53:04;18.00;99.90
56162;DHT22;42045;52.986;6.014;2022-08-01T00:55:30;18.00;99.90
56162;DHT22;42045;52.986;6.014;2022-08-01T00:57:56;17.90;99.90
56162;DHT22;42045;52.986;6.014;2022-08-01T01:00:22;18.00;99.90
56162;DHT22;42045;52.986;6.014;2022-08-01T01:02:48;17.90;99.90
56162;DHT22;42045;52.986;6.014;2022-08-01T01:05:17;18.00;99.90
56162;DHT22;42045;52.986;6.014;2022-08-01T01:07:56;18.00;99.90
56162;DHT22;42045;52.986;6.014;2022-08-01T01:10:33;17.80;99.90
56162;DHT22;42045;52.986;6.014;2022-08-01T01:13:09;17.90;99.90
56162;DHT22;42045;52.986;6.014;2022-08-01T01:18:13;17.80;99.90
56162;DHT22;42045;52.986;6.014;2022-08-01T01:20:41;17.90;99.90
56162;DHT22;42045;52.986;6.014;2022-08-01T01:23:12;17.80;99.90
56162;DHT22;42045;52.986;6.014;2022-08-01T01:30:51;17.70;99.90
56162;DHT22;42045;52.986;6.014;2022-08-01T01:33:20;17.80;99.90
56162;DHT22;42045;52.986;6.014;2022-08-01T01:35:47;17.70;99.90
56162;DHT22;42045;52.986;6.014;2022-08-01T01:38:18;17.70;99.90
56162;DHT22;42045;52.986;6.014;2022-08-01T01:40:45;17.80;99.90
56162;DHT22;42045;52.986;6.014;2022-08-01T01:43:12;17.70;99.90
56162;DHT22;42045;52.986;6.014;2022-08-01T01:45:39;17.70;99.90
56162;DHT22;42045;52.986;6.014;2022-08-01T01:48:05;17.80;99.90
56162;DHT22;42045;52.986;6.014;2022-08-01T01:50:31;17.80;99.90
56162;DHT22;42045;52.986;6.014;2022-08-01T01:52:57;17.70;99.90
56162;DHT22;42045;52.986;6.014;2022-08-01T01:55:24;17.60;99.90
56162;DHT22;42045;52.986;6.014;2022-08-01T01:57:50;17.60;99.90
56162;DHT22;42045;52.986;6.014;2022-08-01T02:00:16;17.70;99.90
56162;DHT22;42045;52.986;6.014;2022-08-01T02:02:47;17.50;99.90
56162;DHT22;42045;52.986;6.014;2022-08-01T02:05:13;17.50;99.90
56162;DHT22;42045;52.986;6.014;2022-08-01T02:07:39;17.50;99.90
56162;DHT22;42045;52.986;6.014;2022-08-01T02:10:06;17.40;99.90
56162;DHT22;42045;52.986;6.014;2022-08-01T02:12:35;17.40;99.90
56162;DHT22;42045;52.986;6.014;2022-08-01T02:15:02;17.40;99.90
56162;DHT22;42045;52.986;6.014;2022-08-01T02:17:28;17.30;99.90
56162;DHT22;42045;52.986;6.014;2022-08-01T02:19:55;17.40;99.90
56162;DHT22;42045;52.986;6.014;2022-08-01T02:24:59;17.30;99.90
56162;DHT22;42045;52.986;6.014;2022-08-01T02:30:32;17.30;99.90
56162;DHT22;42045;52.986;6.014;2022-08-01T02:33:08;17.30;99.90
56162;DHT22;42045;52.986;6.014;2022-08-01T02:35:37;17.30;99.90
56162;DHT22;42045;52.986;6.014;2022-08-01T02:38:04;17.30;99.90
56162;DHT22;42045;52.986;6.014;2022-08-01T02:40:31;17.20;99.90
56162;DHT22;42045;52.986;6.014;2022-08-01T02:42:59;17.20;99.90
56162;DHT22;42045;52.986;6.014;2022-08-01T02:45:26;17.30;99.90
56162;DHT22;42045;52.986;6.014;2022-08-01T02:47:52;17.20;99.90
56162;DHT22;42045;52.986;6.014;2022-08-01T02:50:19;17.20;99.90
56162;DHT22;42045;52.986;6.014;2022-08-01T02:52:46;17.30;99.90
56162;DHT22;42045;52.986;6.014;2022-08-01T02:55:14;17.30;99.90
56162;DHT22;42045;52.986;6.014;2022-08-01T02:57:41;17.30;99.90
56162;DHT22;42045;52.986;6.014;2022-08-01T03:00:08;17.30;99.90
56162;DHT22;42045;52.986;6.014;2022-08-01T03:02:34;17.30;99.90
56162;DHT22;42045;52.986;6.014;2022-08-01T03:05:01;17.30;99.90
56162;DHT22;42045;52.986;6.014;2022-08-01T03:07:27;17.30;99.90
56162;DHT22;42045;52.986;6.014;2022-08-01T03:09:55;17.40;99.90
56162;DHT22;42045;52.986;6.014;2022-08-01T03:12:23;17.30;99.90
56162;DHT22;42045;52.986;6.014;2022-08-01T03:14:49;17.30;99.90
56162;DHT22;42045;52.986;6.014;2022-08-01T03:17:17;17.30;99.90
56162;DHT22;42045;52.986;6.014;2022-08-01T03:19:44;17.40;99.90
56162;DHT22;42045;52.986;6.014;2022-08-01T03:22:14;17.30;99.90
56162;DHT22;42045;52.986;6.014;2022-08-01T03:24:44;17.30;99.90
56162;DHT22;42045;52.986;6.014;2022-08-01T03:27:11;17.30;99.90
56162;DHT22;42045;52.986;6.014;2022-08-01T03:29:37;17.20;99.90
56162;DHT22;42045;52.986;6.014;2022-08-01T03:32:04;17.20;99.90
56162;DHT22;42045;52.986;6.014;2022-08-01T03:34:30;17.20;99.90
56162;DHT22;42045;52.986;6.014;2022-08-01T03:37:02;17.10;99.90
56162;DHT22;42045;52.986;6.014;2022-08-01T03:39:34;17.20;99.90
56162;DHT22;42045;52.986;6.014;2022-08-01T03:42:02;17.00;99.90
56162;DHT22;42045;52.986;6.014;2022-08-01T03:44:31;17.10;99.90
56162;DHT22;42045;52.986;6.014;2022-08-01T03:46:59;17.00;99.90
56162;DHT22;42045;52.986;6.014;2022-08-01T03:49:43;17.00;99.90
56162;DHT22;42045;52.986;6.014;2022-08-01T03:52:10;16.90;99.90
56162;DHT22;42045;52.986;6.014;2022-08-01T03:54:37;16.90;99.90
56162;DHT22;42045;52.986;6.014;2022-08-01T03:57:04;16.90;99.90
56162;DHT22;42045;52.986;6.014;2022-08-01T03:59:35;16.90;99.90
56162;DHT22;42045;52.986;6.014;2022-08-01T04:02:02;16.90;99.90
56162;DHT22;42045;52.986;6.014;2022-08-01T04:04:28;17.00;99.90
56162;DHT22;42045;52.986;6.014;2022-08-01T04:06:53;17.10;99.90
56162;DHT22;42045;52.986;6.014;2022-08-01T04:09:20;17.00;99.90
56162;DHT22;42045;52.986;6.014;2022-08-01T04:11:46;17.00;99.90
56162;DHT22;42045;52.986;6.014;2022-08-01T04:14:12;16.90;99.90
56162;DHT22;42045;52.986;6.014;2022-08-01T04:16:41;16.90;99.90
56162;DHT22;42045;52.986;6.014;2022-08-01T04:19:07;16.90;99.90
56162;DHT22;42045;52.986;6.014;2022-08-01T04:21:33;16.90;99.90
56162;DHT22;42045;52.986;6.014;2022-08-01T04:24:01;16.80;99.90
56162;DHT22;42045;52.986;6.014;2022-08-01T04:26:31;16.90;99.90
56162;DHT22;42045;52.986;6.014;2022-08-01T04:28:57;16.90;99.90
56162;DHT22;42045;52.986;6.014;2022-08-01T04:31:24;16.90;99.90
56162;DHT22;42045;52.986;6.014;2022-08-01T04:33:51;16.80;99.90
56162;DHT22;42045;52.986;6.014;2022-08-01T04:36:19;16.80;99.90
56162;DHT22;42045;52.986;6.014;2022-08-01T04:38:48;16.80;99.90
56162;DHT22;42045;52.986;6.014;2022-08-01T04:41:15;16.70;99.90
56162;DHT22;42045;52.986;6.014;2022-08-01T04:43:42;16.70;99.90
56162;DHT22;42045;52.986;6.014;2022-08-01T04:46:08;16.60;99.90
56162;DHT22;42045;52.986;6.014;2022-08-01T04:48:36;16.70;99.90
56162;DHT22;42045;52.986;6.014;2022-08-01T04:51:01;16.60;99.90
56162;DHT22;42045;52.986;6.014;2022-08-01T04:53:27;16.60;99.90
56162;DHT22;42045;52.986;6.014;2022-08-01T04:55:53;16.60;99.90
56162;DHT22;42045;52.986;6.014;2022-08-01T04:58:19;16.60;99.90
56162;DHT22;42045;52.986;6.014;2022-08-01T05:00:45;16.70;99.90
56162;DHT22;42045;52.986;6.014;2022-08-01T05:03:11;16.70;99.90
56162;DHT22;42045;52.986;6.014;2022-08-01T05:05:36;16.60;99.90
56162;DHT22;42045;52.986;6.014;2022-08-01T05:08:02;16.70;99.90
56162;DHT22;42045;52.986;6.014;2022-08-01T05:10:28;16.80;99.90
56162;DHT22;42045;52.986;6.014;2022-08-01T05:12:53;16.80;99.90
56162;DHT22;42045;52.986;6.014;2022-08-01T05:15:19;16.80;99.90
56162;DHT22;42045;52.986;6.014;2022-08-01T05:17:45;16.70;99.90
56162;DHT22;42045;52.986;6.014;2022-08-01T05:20:12;16.70;99.90
56162;DHT22;42045;52.986;6.014;2022-08-01T05:22:37;16.80;99.90
56162;DHT22;42045;52.986;6.014;2022-08-01T05:25:03;16.80;99.90
56162;DHT22;42045;52.986;6.014;2022-08-01T05:27:30;16.80;99.90
56162;DHT22;42045;52.986;6.014;2022-08-01T05:29:56;16.80;99.90
56162;DHT22;42045;52.986;6.014;2022-08-01T05:32:21;16.70;99.90
56162;DHT22;42045;52.986;6.014;2022-08-01T05:34:47;16.70;99.90
56162;DHT22;42045;52.986;6.014;2022-08-01T05:37:13;16.80;99.90
56162;DHT22;42045;52.986;6.014;2022-08-01T05:39:38;16.70;99.90
56162;DHT22;42045;52.986;6.014;2022-08-01T05:42:04;16.70;99.90
56162;DHT22;42045;52.986;6.014;2022-08-01T05:44:30;16.70;99.90
56162;DHT22;42045;52.986;6.014;2022-08-01T05:46:56;16.70;99.90
56162;DHT22;42045;52.986;6.014;2022-08-01T05:49:21;16.60;99.90
56162;DHT22;42045;52.986;6.014;2022-08-01T05:51:47;16.50;99.90
56162;DHT22;42045;52.986;6.014;2022-08-01T05:54:13;16.50;99.90
56162;DHT22;42045;52.986;6.014;2022-08-01T05:56:38;16.50;99.90
56162;DHT22;42045;52.986;6.014;2022-08-01T05:59:04;16.50;99.90
56162;DHT22;42045;52.986;6.014;2022-08-01T06:01:30;16.50;99.90
56162;DHT22;42045;52.986;6.014;2022-08-01T06:03:55;16.60;99.90
56162;DHT22;42045;52.986;6.014;2022-08-01T06:06:21;16.70;99.90
56162;DHT22;42045;52.986;6.014;2022-08-01T06:08:50;16.70;99.90
56162;DHT22;42045;52.986;6.014;2022-08-01T06:11:17;16.70;99.90
56162;DHT22;42045;52.986;6.014;2022-08-01T06:13:42;16.70;99.90
56162;DHT22;42045;52.986;6.014;2022-08-01T06:16:08;16.70;99.90
56162;DHT22;42045;52.986;6.014;2022-08-01T06:18:33;16.80;99.90
56162;DHT22;42045;52.986;6.014;2022-08-01T06:20:59;16.80;99.90
56162;DHT22;42045;52.986;6.014;2022-08-01T06:23:25;16.80;99.90
56162;DHT22;42045;52.986;6.014;2022-08-01T06:25:53;16.80;99.90
56162;DHT22;42045;52.986;6.014;2022-08-01T06:28:20;16.80;99.90
56162;DHT22;42045;52.986;6.014;2022-08-01T06:30:45;16.80;99.90
56162;DHT22;42045;52.986;6.014;2022-08-01T06:33:11;16.90;99.90
56162;DHT22;42045;52.986;6.014;2022-08-01T06:35:37;17.00;99.90
56162;DHT22;42045;52.986;6.014;2022-08-01T06:38:02;17.10;99.90
56162;DHT22;42045;52.986;6.014;2022-08-01T06:40:28;17.20;99.90
56162;DHT22;42045;52.986;6.014;2022-08-01T06:42:54;17.30;99.90
56162;DHT22;42045;52.986;6.014;2022-08-01T06:45:19;17.30;99.90
56162;DHT22;42045;52.986;6.014;2022-08-01T06:47:47;17.50;99.90
56162;DHT22;42045;52.986;6.014;2022-08-01T06:50:13;17.60;99.90
56162;DHT22;42045;52.986;6.014;2022-08-01T06:52:40;17.70;99.90
56162;DHT22;42045;52.986;6.014;2022-08-01T06:55:06;17.80;99.90
56162;DHT22;42045;52.986;6.014;2022-08-01T06:57:31;18.00;99.90
56162;DHT22;42045;52.986;6.014;2022-08-01T07:00:00;18.00;99.90
56162;DHT22;42045;52.986;6.014;2022-08-01T07:02:29;18.20;99.90
56162;DHT22;42045;52.986;6.014;2022-08-01T07:04:55;18.30;99.90
56162;DHT22;42045;52.986;6.014;2022-08-01T07:07:20;18.50;99.90
56162;DHT22;42045;52.986;6.014;2022-08-01T07:09:46;18.60;99.90
56162;DHT22;42045;52.986;6.014;2022-08-01T07:12:12;18.80;99.90
56162;DHT22;42045;52.986;6.014;2022-08-01T07:14:37;19.00;99.90
56162;DHT22;42045;52.986;6.014;2022-08-01T07:17:03;19.30;99.90
56162;DHT22;42045;52.986;6.014;2022-08-01T07:19:29;19.20;99.90
56162;DHT22;42045;52.986;6.014;2022-08-01T07:21:54;18.90;99.90
56162;DHT22;42045;52.986;6.014;2022-08-01T07:24:20;18.70;99.90
56162;DHT22;42045;52.986;6.014;2022-08-01T07:26:47;19.00;99.90
56162;DHT22;42045;52.986;6.014;2022-08-01T07:29:12;19.20;99.90
56162;DHT22;42045;52.986;6.014;2022-08-01T07:31:38;19.50;99.90
56162;DHT22;42045;52.986;6.014;2022-08-01T07:34:04;19.90;99.90
56162;DHT22;42045;52.986;6.014;2022-08-01T07:36:29;20.70;99.90
56162;DHT22;42045;52.986;6.014;2022-08-01T07:38:55;21.40;99.90
56162;DHT22;42045;52.986;6.014;2022-08-01T07:41:20;21.70;99.90
56162;DHT22;42045;52.986;6.014;2022-08-01T07:43:46;21.60;99.90
56162;DHT22;42045;52.986;6.014;2022-08-01T07:46:14;21.60;99.90
56162;DHT22;42045;52.986;6.014;2022-08-01T07:48:40;22.00;99.90
56162;DHT22;42045;52.986;6.014;2022-08-01T07:51:06;21.90;99.90
56162;DHT22;42045;52.986;6.014;2022-08-01T07:53:33;21.90;99.90
56162;DHT22;42045;52.986;6.014;2022-08-01T07:55:59;21.90;99.90
56162;DHT22;42045;52.986;6.014;2022-08-01T07:58:25;21.50;99.90
56162;DHT22;42045;52.986;6.014;2022-08-01T08:00:50;21.70;99.90
56162;DHT22;42045;52.986;6.014;2022-08-01T08:03:16;22.00;99.90
56162;DHT22;42045;52.986;6.014;2022-08-01T08:05:41;21.90;99.90
56162;DHT22;42045;52.986;6.014;2022-08-01T08:08:08;22.10;99.90
56162;DHT22;42045;52.986;6.014;2022-08-01T08:10:34;22.10;99.90
56162;DHT22;42045;52.986;6.014;2022-08-01T08:13:00;21.80;99.90
56162;DHT22;42045;52.986;6.014;2022-08-01T08:15:27;21.70;99.90
56162;DHT22;42045;52.986;6.014;2022-08-01T08:17:52;22.00;99.90
56162;DHT22;42045;52.986;6.014;2022-08-01T08:20:19;22.20;99.90
56162;DHT22;42045;52.986;6.014;2022-08-01T08:22:50;22.30;99.90
56162;DHT22;42045;52.986;6.014;2022-08-01T08:25:16;22.40;99.90
56162;DHT22;42045;52.986;6.014;2022-08-01T08:27:42;22.50;99.90
56162;DHT22;42045;52.986;6.014;2022-08-01T08:30:07;22.50;99.90
56162;DHT22;42045;52.986;6.014;2022-08-01T08:32:34;22.70;99.90
56162;DHT22;42045;52.986;6.014;2022-08-01T08:35:00;22.90;99.90
56162;DHT22;42045;52.986;6.014;2022-08-01T08:37:25;23.00;99.90
56162;DHT22;42045;52.986;6.014;2022-08-01T08:39:51;23.30;99.90
56162;DHT22;42045;52.986;6.014;2022-08-01T08:42:16;23.10;99.90
56162;DHT22;42045;52.986;6.014;2022-08-01T08:44:43;23.20;99.90
56162;DHT22;42045;52.986;6.014;2022-08-01T08:47:10;23.10;99.90
56162;DHT22;42045;52.986;6.014;2022-08-01T08:49:36;23.30;99.90
56162;DHT22;42045;52.986;6.014;2022-08-01T08:52:03;23.10;99.90
56162;DHT22;42045;52.986;6.014;2022-08-01T08:54:30;22.90;99.90
56162;DHT22;42045;52.986;6.014;2022-08-01T08:56:56;22.70;99.90
56162;DHT22;42045;52.986;6.014;2022-08-01T08:59:22;22.40;99.90
56162;DHT22;42045;52.986;6.014;2022-08-01T09:01:51;22.30;99.90
56162;DHT22;42045;52.986;6.014;2022-08-01T09:04:17;22.40;99.90
56162;DHT22;42045;52.986;6.014;2022-08-01T09:06:43;22.30;99.90
56162;DHT22;42045;52.986;6.014;2022-08-01T09:09:09;22.40;99.90
56162;DHT22;42045;52.986;6.014;2022-08-01T09:11:35;22.70;99.90
56162;DHT22;42045;52.986;6.014;2022-08-01T09:14:01;22.60;99.90
56162;DHT22;42045;52.986;6.014;2022-08-01T09:16:28;22.60;99.90
56162;DHT22;42045;52.986;6.014;2022-08-01T09:18:53;22.70;99.90
56162;DHT22;42045;52.986;6.014;2022-08-01T09:21:20;22.80;99.90
56162;DHT22;42045;52.986;6.014;2022-08-01T09:26:14;23.00;99.90
56162;DHT22;42045;52.986;6.014;2022-08-01T09:28:40;23.00;99.90
56162;DHT22;42045;52.986;6.014;2022-08-01T09:31:07;23.00;99.90
56162;DHT22;42045;52.986;6.014;2022-08-01T09:33:49;23.30;99.90
56162;DHT22;42045;52.986;6.014;2022-08-01T09:36:15;23.20;99.90
56162;DHT22;42045;52.986;6.014;2022-08-01T09:38:41;23.00;99.90
56162;DHT22;42045;52.986;6.014;2022-08-01T09:41:06;23.00;99.90
56162;DHT22;42045;52.986;6.014;2022-08-01T09:43:32;23.20;99.90
56162;DHT22;42045;52.986;6.014;2022-08-01T09:45:59;23.20;99.90
56162;DHT22;42045;52.986;6.014;2022-08-01T09:48:25;23.20;99.90
56162;DHT22;42045;52.986;6.014;2022-08-01T09:50:52;23.10;99.90
56162;DHT22;42045;52.986;6.014;2022-08-01T09:53:19;23.10;99.90
56162;DHT22;42045;52.986;6.014;2022-08-01T09:55:44;23.10;99.90
56162;DHT22;42045;52.986;6.014;2022-08-01T09:58:10;23.00;99.90
56162;DHT22;42045;52.986;6.014;2022-08-01T10:00:37;22.90;99.90
56162;DHT22;42045;52.986;6.014;2022-08-01T10:03:19;22.90;99.90
56162;DHT22;42045;52.986;6.014;2022-08-01T10:05:45;22.70;99.90
56162;DHT22;42045;52.986;6.014;2022-08-01T10:08:12;22.60;99.90
56162;DHT22;42045;52.986;6.014;2022-08-01T10:10:37;22.70;99.90
56162;DHT22;42045;52.986;6.014;2022-08-01T10:13:03;22.80;99.90
56162;DHT22;42045;52.986;6.014;2022-08-01T10:15:29;22.90;99.90
56162;DHT22;42045;52.986;6.014;2022-08-01T10:17:56;23.10;99.00
56162;DHT22;42045;52.986;6.014;2022-08-01T10:20:26;23.20;99.90
56162;DHT22;42045;52.986;6.014;2022-08-01T10:22:57;23.30;99.60
56162;DHT22;42045;52.986;6.014;2022-08-01T10:25:23;23.20;99.20
56162;DHT22;42045;52.986;6.014;2022-08-01T10:27:52;23.50;99.30
56162;DHT22;42045;52.986;6.014;2022-08-01T10:30:20;23.60;99.40
56162;DHT22;42045;52.986;6.014;2022-08-01T10:32:46;23.20;98.80
56162;DHT22;42045;52.986;6.014;2022-08-01T10:35:12;23.40;99.90
56162;DHT22;42045;52.986;6.014;2022-08-01T10:37:43;23.30;99.00
56162;DHT22;42045;52.986;6.014;2022-08-01T10:40:08;23.20;98.70
56162;DHT22;42045;52.986;6.014;2022-08-01T10:42:36;23.20;98.70
56162;DHT22;42045;52.986;6.014;2022-08-01T10:45:02;23.20;98.30
56162;DHT22;42045;52.986;6.014;2022-08-01T10:47:33;23.30;98.90
56162;DHT22;42045;52.986;6.014;2022-08-01T10:53:29;23.40;99.50
56162;DHT22;42045;52.986;6.014;2022-08-01T10:55:29;23.30;98.50
56162;DHT22;42045;52.986;6.014;2022-08-01T10:58:09;23.30;98.30
56162;DHT22;42045;52.986;6.014;2022-08-01T11:00:35;23.20;98.50
56162;DHT22;42045;52.986;6.014;2022-08-01T11:03:02;23.30;98.70
56162;DHT22;42045;52.986;6.014;2022-08-01T11:05:32;23.50;98.80
56162;DHT22;42045;52.986;6.014;2022-08-01T11:08:03;23.50;97.40
56162;DHT22;42045;52.986;6.014;2022-08-01T11:12:57;23.40;97.60
56162;DHT22;42045;52.986;6.014;2022-08-01T11:15:26;23.30;97.10
56162;DHT22;42045;52.986;6.014;2022-08-01T11:17:54;23.40;96.90
56162;DHT22;42045;52.986;6.014;2022-08-01T11:20:21;23.40;97.70
56162;DHT22;42045;52.986;6.014;2022-08-01T11:30:42;23.40;97.20
56162;DHT22;42045;52.986;6.014;2022-08-01T11:33:08;23.40;97.10
56162;DHT22;42045;52.986;6.014;2022-08-01T11:35:35;23.40;96.40
56162;DHT22;42045;52.986;6.014;2022-08-01T11:41:09;23.30;96.40
56162;DHT22;42045;52.986;6.014;2022-08-01T11:43:34;23.40;97.20
56162;DHT22;42045;52.986;6.014;2022-08-01T11:46:00;23.30;96.60
56162;DHT22;42045;52.986;6.014;2022-08-01T11:48:27;23.30;97.30
56162;DHT22;42045;52.986;6.014;2022-08-01T11:50:54;23.30;97.60
56162;DHT22;42045;52.986;6.014;2022-08-01T11:53:20;23.40;96.10
56162;DHT22;42045;52.986;6.014;2022-08-01T11:55:47;23.40;96.90
56162;DHT22;42045;52.986;6.014;2022-08-01T11:58:16;23.20;95.30
56162;DHT22;42045;52.986;6.014;2022-08-01T12:00:42;23.40;96.60
56162;DHT22;42045;52.986;6.014;2022-08-01T12:03:15;23.00;95.90
56162;DHT22;42045;52.986;6.014;2022-08-01T12:05:43;23.20;96.50
56162;DHT22;42045;52.986;6.014;2022-08-01T12:08:09;23.10;96.60
56162;DHT22;42045;52.986;6.014;2022-08-01T12:10:35;23.10;96.60
56162;DHT22;42045;52.986;6.014;2022-08-01T12:13:04;23.20;96.90
56162;DHT22;42045;52.986;6.014;2022-08-01T12:15:32;23.20;96.90
56162;DHT22;42045;52.986;6.014;2022-08-01T12:18:01;23.10;95.00
56162;DHT22;42045;52.986;6.014;2022-08-01T12:20:31;22.80;95.40
56162;DHT22;42045;52.986;6.014;2022-08-01T12:22:59;22.80;96.40
56162;DHT22;42045;52.986;6.014;2022-08-01T12:25:25;22.80;95.70
56162;DHT22;42045;52.986;6.014;2022-08-01T12:27:52;23.00;96.20
56162;DHT22;42045;52.986;6.014;2022-08-01T12:30:19;23.00;96.10
56162;DHT22;42045;52.986;6.014;2022-08-01T12:32:47;22.90;96.60
56162;DHT22;42045;52.986;6.014;2022-08-01T12:35:14;22.80;95.30
56162;DHT22;42045;52.986;6.014;2022-08-01T12:37:41;22.90;95.50
56162;DHT22;42045;52.986;6.014;2022-08-01T12:40:14;22.90;95.80
56162;DHT22;42045;52.986;6.014;2022-08-01T12:42:40;23.00;96.20
56162;DHT22;42045;52.986;6.014;2022-08-01T12:45:10;22.90;95.30
56162;DHT22;42045;52.986;6.014;2022-08-01T12:47:37;22.90;95.90
56162;DHT22;42045;52.986;6.014;2022-08-01T12:50:22;23.00;96.20
56162;DHT22;42045;52.986;6.014;2022-08-01T12:52:48;22.90;96.10
56162;DHT22;42045;52.986;6.014;2022-08-01T12:55:20;23.00;97.10
56162;DHT22;42045;52.986;6.014;2022-08-01T12:57:47;23.00;95.90
56162;DHT22;42045;52.986;6.014;2022-08-01T13:00:22;22.90;96.30
56162;DHT22;42045;52.986;6.014;2022-08-01T13:02:48;22.90;95.80
56162;DHT22;42045;52.986;6.014;2022-08-01T13:05:15;22.90;95.00
56162;DHT22;42045;52.986;6.014;2022-08-01T13:07:50;22.60;93.30
56162;DHT22;42045;52.986;6.014;2022-08-01T13:10:28;22.60;94.20
56162;DHT22;42045;52.986;6.014;2022-08-01T13:12:56;22.50;94.50
56162;DHT22;42045;52.986;6.014;2022-08-01T13:15:26;22.50;93.80
56162;DHT22;42045;52.986;6.014;2022-08-01T13:17:52;22.50;94.50
56162;DHT22;42045;52.986;6.014;2022-08-01T13:20:36;22.50;94.80
56162;DHT22;42045;52.986;6.014;2022-08-01T13:23:15;22.40;94.90
56162;DHT22;42045;52.986;6.014;2022-08-01T13:25:48;22.50;95.80
56162;DHT22;42045;52.986;6.014;2022-08-01T13:28:15;22.50;95.60
56162;DHT22;42045;52.986;6.014;2022-08-01T13:30:50;22.50;94.80
56162;DHT22;42045;52.986;6.014;2022-08-01T13:33:16;22.60;94.90
56162;DHT22;42045;52.986;6.014;2022-08-01T13:35:41;22.50;94.10
56162;DHT22;42045;52.986;6.014;2022-08-01T13:38:08;22.40;94.30
56162;DHT22;42045;52.986;6.014;2022-08-01T13:40:34;22.40;94.40
56162;DHT22;42045;52.986;6.014;2022-08-01T13:42:59;22.40;94.70
56162;DHT22;42045;52.986;6.014;2022-08-01T13:45:25;22.40;94.60
56162;DHT22;42045;52.986;6.014;2022-08-01T13:47:51;22.30;94.20
56162;DHT22;42045;52.986;6.014;2022-08-01T13:50:16;22.40;94.70
56162;DHT22;42045;52.986;6.014;2022-08-01T13:52:42;22.30;93.90
56162;DHT22;42045;52.986;6.014;2022-08-01T13:55:08;22.30;94.10
56162;DHT22;42045;52.986;6.014;2022-08-01T13:57:34;22.40;94.60
56162;DHT22;42045;52.986;6.014;2022-08-01T14:00:00;22.30;94.90
56162;DHT22;42045;52.986;6.014;2022-08-01T14:02:26;22.40;95.10
56162;DHT22;42045;52.986;6.014;2022-08-01T14:04:52;22.30;94.30
56162;DHT22;42045;52.986;6.014;2022-08-01T14:07:19;22.30;93.50
56162;DHT22;42045;52.986;6.014;2022-08-01T14:09:45;22.30;93.40
56162;DHT22;42045;52.986;6.014;2022-08-01T14:12:11;22.30;93.60
56162;DHT22;42045;52.986;6.014;2022-08-01T14:14:36;22.40;93.70
56162;DHT22;42045;52.986;6.014;2022-08-01T14:17:03;22.10;93.20
56162;DHT22;42045;52.986;6.014;2022-08-01T14:19:29;22.20;93.80
56162;DHT22;42045;52.986;6.014;2022-08-01T14:21:55;22.30;94.60
56162;DHT22;42045;52.986;6.014;2022-08-01T14:24:22;22.30;94.80
56162;DHT22;42045;52.986;6.014;2022-08-01T14:26:48;22.20;94.40
56162;DHT22;42045;52.986;6.014;2022-08-01T14:29:13;22.00;94.50
56162;DHT22;42045;52.986;6.014;2022-08-01T14:31:39;22.00;95.10
56162;DHT22;42045;52.986;6.014;2022-08-01T14:34:04;22.00;95.40
56162;DHT22;42045;52.986;6.014;2022-08-01T14:36:30;22.00;95.10
56162;DHT22;42045;52.986;6.014;2022-08-01T14:38:56;22.00;95.20
56162;DHT22;42045;52.986;6.014;2022-08-01T14:41:21;22.10;95.50
56162;DHT22;42045;52.986;6.014;2022-08-01T14:43:47;22.10;95.10
56162;DHT22;42045;52.986;6.014;2022-08-01T14:46:13;22.20;95.60
56162;DHT22;42045;52.986;6.014;2022-08-01T14:48:38;22.20;94.90
56162;DHT22;42045;52.986;6.014;2022-08-01T14:51:04;22.10;95.10
56162;DHT22;42045;52.986;6.014;2022-08-01T14:53:32;22.20;95.40
56162;DHT22;42045;52.986;6.014;2022-08-01T14:55:59;22.10;95.00
56162;DHT22;42045;52.986;6.014;2022-08-01T14:58:25;22.00;95.00
56162;DHT22;42045;52.986;6.014;2022-08-01T15:00:50;22.00;95.10
56162;DHT22;42045;52.986;6.014;2022-08-01T15:03:20;22.10;95.50
56162;DHT22;42045;52.986;6.014;2022-08-01T15:05:45;22.00;95.50
56162;DHT22;42045;52.986;6.014;2022-08-01T15:08:11;21.90;95.20
56162;DHT22;42045;52.986;6.014;2022-08-01T15:10:37;21.70;95.40
56162;DHT22;42045;52.986;6.014;2022-08-01T15:13:02;21.80;95.90
56162;DHT22;42045;52.986;6.014;2022-08-01T15:15:28;21.60;95.40
56162;DHT22;42045;52.986;6.014;2022-08-01T15:17:53;21.50;95.30
56162;DHT22;42045;52.986;6.014;2022-08-01T15:20:19;21.30;95.00
56162;DHT22;42045;52.986;6.014;2022-08-01T15:22:45;21.40;96.00
56162;DHT22;42045;52.986;6.014;2022-08-01T15:25:10;21.30;95.60
56162;DHT22;42045;52.986;6.014;2022-08-01T15:27:36;21.40;95.80
56162;DHT22;42045;52.986;6.014;2022-08-01T15:30:02;21.20;95.80
56162;DHT22;42045;52.986;6.014;2022-08-01T15:32:28;21.30;95.90
56162;DHT22;42045;52.986;6.014;2022-08-01T15:34:54;21.30;95.60
56162;DHT22;42045;52.986;6.014;2022-08-01T15:37:21;21.20;95.20
56162;DHT22;42045;52.986;6.014;2022-08-01T15:39:47;21.20;96.10
56162;DHT22;42045;52.986;6.014;2022-08-01T15:42:13;21.20;96.40
56162;DHT22;42045;52.986;6.014;2022-08-01T15:44:39;21.20;96.50
56162;DHT22;42045;52.986;6.014;2022-08-01T15:47:05;21.30;96.50
56162;DHT22;42045;52.986;6.014;2022-08-01T15:49:31;21.10;95.80
56162;DHT22;42045;52.986;6.014;2022-08-01T15:51:57;21.10;95.90
56162;DHT22;42045;52.986;6.014;2022-08-01T15:54:23;21.10;96.30
56162;DHT22;42045;52.986;6.014;2022-08-01T15:56:49;21.10;96.90
56162;DHT22;42045;52.986;6.014;2022-08-01T15:59:14;21.00;96.30
56162;DHT22;42045;52.986;6.014;2022-08-01T16:01:41;20.90;96.20